Time;durP1;ratioP1;P1;durP2;ratioP2;P2;SDS_P1;SDS_P2;PMS_P1;PMS_P2;Temp;Humidity;BMP_temperature;BMP_pressure;BME280_temperature;BME280_humidity;BME280_pressure;Samples;Min_cycle;Max_cycle;Signal;HPM_P1;HPM_P2
2022/03/12 00:00:38;;;;;;;10.43;7.13;;;9.20;86.40;;;;;;5010029;28;20052;-70
2022/03/12 00:03:05;;;;;;;8.77;6.60;;;9.30;86.30;;;;;;5009562;28;20190;-71
2022/03/12 00:05:32;;;;;;;9.93;6.27;;;;;;;;;;5010242;28;20030;-71
2022/03/12 00:08:03;;;;;;;7.73;6.03;;;9.40;86.40;;;;;;5009541;28;20065;-71
2022/03/12 00:10:29;;;;;;;7.53;6.23;;;9.20;86.40;;;;;;5010304;28;20542;-71
2022/03/12 00:12:55;;;;;;;12.73;6.87;;;9.40;79.80;;;;;;5008570;28;20077;-70
2022/03/12 00:15:20;;;;;;;12.43;6.43;;;9.20;86.20;;;;;;5010125;28;20037;-71
2022/03/12 00:17:46;;;;;;;8.73;6.43;;;9.40;81.40;;;;;;5009769;28;20061;-70
2022/03/12 00:20:18;;;;;;;8.93;6.30;;;9.30;86.50;;;;;;5009702;28;20026;-70
2022/03/12 00:22:47;;;;;;;8.60;5.93;;;9.20;86.60;;;;;;5009889;28;20018;-71
2022/03/12 00:25:16;;;;;;;8.23;6.17;;;9.10;86.50;;;;;;5010327;28;20037;-71
2022/03/12 00:27:42;;;;;;;9.27;5.37;;;9.20;86.60;;;;;;5012531;28;20104;-71
2022/03/12 00:30:09;;;;;;;7.47;5.40;;;9.00;86.50;;;;;;5013239;28;20109;-70
2022/03/12 00:32:35;;;;;;;10.87;6.43;;;9.10;86.60;;;;;;5012856;28;20036;-70
2022/03/12 00:35:02;;;;;;;8.20;5.37;;;9.20;86.80;;;;;;5013037;28;20014;-70
2022/03/12 00:37:27;;;;;;;9.07;6.90;;;9.00;86.60;;;;;;5011156;28;20068;-70
2022/03/12 00:39:53;;;;;;;8.90;5.87;;;;;;;;;;5010674;28;20025;-70
2022/03/12 00:42:19;;;;;;;9.03;6.73;;;9.00;86.80;;;;;;5012809;28;20475;-70
2022/03/12 00:44:45;;;;;;;7.67;5.70;;;;;;;;;;5013495;28;20040;-71
2022/03/12 00:47:11;;;;;;;12.03;6.73;;;;;;;;;;5012804;28;20078;-71
2022/03/12 00:49:37;;;;;;;10.70;6.50;;;;;;;;;;5013388;28;20046;-70
2022/03/12 00:52:02;;;;;;;8.57;5.53;;;8.90;87.40;;;;;;5013383;28;20037;-72
2022/03/12 00:54:28;;;;;;;10.17;6.23;;;8.70;87.40;;;;;;5013259;28;20387;-71
2022/03/12 00:56:53;;;;;;;12.63;6.30;;;8.80;87.50;;;;;;5012848;28;20489;-71
2022/03/12 00:59:19;;;;;;;7.50;5.43;;;;;;;;;;5013516;28;20030;-70
2022/03/12 01:01:45;;;;;;;6.77;5.60;;;8.80;81.60;;;;;;5012772;28;20045;-70
2022/03/12 01:04:10;;;;;;;7.77;6.17;;;8.70;87.80;;;;;;5013288;28;20026;-70
2022/03/12 01:06:37;;;;;;;7.87;5.90;;;8.60;87.90;;;;;;5013214;28;20487;-70
2022/03/12 01:09:03;;;;;;;10.17;6.33;;;8.80;82.70;;;;;;5013270;28;20049;-70
2022/03/12 01:11:29;;;;;;;9.93;6.70;;;8.80;72.30;;;;;;5012917;28;20041;-70
2022/03/12 01:13:55;;;;;;;10.73;6.23;;;8.70;88.20;;;;;;5012804;28;20022;-70
2022/03/12 01:16:21;;;;;;;9.53;6.03;;;8.80;88.30;;;;;;5012770;28;20084;-71
2022/03/12 01:18:47;;;;;;;9.23;6.07;;;;;;;;;;5013103;28;20034;-70
2022/03/12 01:21:17;;;;;;;13.83;8.17;;;8.70;88.10;;;;;;5012978;28;20105;-70
2022/03/12 01:23:44;;;;;;;8.23;5.87;;;8.80;76.30;;;;;;5012869;28;20022;-70
2022/03/12 01:26:11;;;;;;;7.55;5.70;;;8.90;88.10;;;;;;5012458;28;20034;-70
2022/03/12 01:28:37;;;;;;;7.73;5.87;;;;;;;;;;5012799;28;20438;-70
2022/03/12 01:31:04;;;;;;;9.57;5.63;;;9.00;88.20;;;;;;5012117;28;20026;-70
2022/03/12 01:33:30;;;;;;;9.77;5.97;;;9.00;88.00;;;;;;5012988;28;20038;-70
2022/03/12 01:35:57;;;;;;;9.67;6.13;;;8.90;87.90;;;;;;5012482;28;20053;-70
2022/03/12 01:38:31;;;;;;;10.23;6.60;;;8.90;87.80;;;;;;5010953;28;20033;-70
2022/03/12 01:41:02;;;;;;;9.37;7.73;;;9.10;77.40;;;;;;5010828;28;20403;-70
2022/03/12 01:43:32;;;;;;;7.60;5.13;;;9.10;87.70;;;;;;5012285;28;20061;-70
2022/03/12 01:46:01;;;;;;;11.63;6.50;;;9.20;70.50;;;;;;5012416;28;20387;-70
2022/03/12 01:48:28;;;;;;;9.00;5.83;;;9.20;87.70;;;;;;5012687;28;20034;-70
2022/03/12 01:50:54;;;;;;;12.40;6.60;;;9.30;87.70;;;;;;5011597;28;21613;-70
2022/03/12 01:53:20;;;;;;;10.73;7.37;;;;;;;;;;5012585;28;20033;-70
2022/03/12 01:55:46;;;;;;;9.93;6.57;;;;;;;;;;5011940;28;20028;-70
2022/03/12 01:58:12;;;;;;;12.87;6.93;;;9.20;72.50;;;;;;5011627;28;20021;-70
2022/03/12 02:00:49;;;;;;;13.57;6.83;;;9.30;88.20;;;;;;5012005;28;20037;-70
2022/03/12 02:03:22;;;;;;;9.10;6.47;;;9.50;88.50;;;;;;5011421;28;20030;-70
2022/03/12 02:05:48;;;;;;;9.27;7.13;;;;;;;;;;5010981;28;20119;-70
2022/03/12 02:08:14;;;;;;;10.27;5.93;;;;;;;;;;5012091;28;20494;-70
2022/03/12 02:10:44;;;;;;;9.90;6.47;;;9.40;89.50;;;;;;5012015;28;20026;-70
2022/03/12 02:13:11;;;;;;;10.63;7.47;;;9.30;74.00;;;;;;5011530;28;20116;-70
2022/03/12 02:15:37;;;;;;;9.60;6.40;;;9.70;90.20;;;;;;5011802;28;20080;-70
2022/03/12 02:18:04;;;;;;;9.07;7.20;;;9.20;90.40;;;;;;5011757;28;20034;-70
2022/03/12 02:20:29;;;;;;;9.27;7.10;;;9.10;84.80;;;;;;5012042;28;20033;-70
2022/03/12 02:22:55;;;;;;;9.30;6.27;;;9.20;90.70;;;;;;5011409;28;20041;-70
2022/03/12 02:25:26;;;;;;;11.77;8.20;;;9.00;90.90;;;;;;5011771;28;20030;-70
2022/03/12 02:27:52;;;;;;;10.43;7.27;;;9.20;91.00;;;;;;5010839;28;20482;-70
2022/03/12 02:30:19;;;;;;;8.80;6.70;;;9.00;91.10;;;;;;5011948;28;20017;-70
2022/03/12 02:32:45;;;;;;;8.73;6.90;;;9.10;80.10;;;;;;5011705;28;20037;-70
2022/03/12 02:35:11;;;;;;;11.97;8.03;;;9.00;91.30;;;;;;5011428;28;20033;-71
2022/03/12 02:37:38;;;;;;;10.47;7.40;;;9.00;91.50;;;;;;5011214;28;20033;-70
2022/03/12 02:40:07;;;;;;;7.90;6.27;;;9.00;91.50;;;;;;5011368;28;20026;-70
2022/03/12 02:42:36;;;;;;;17.83;6.90;;;9.00;91.70;;;;;;5010986;28;20124;-70
2022/03/12 02:45:05;;;;;;;13.70;8.40;;;9.00;91.90;;;;;;5010819;28;20061;-70
2022/03/12 02:47:32;;;;;;;11.93;7.03;;;;;;;;;;5011476;28;20095;-70
2022/03/12 02:50:07;;;;;;;11.90;8.03;;;9.00;92.10;;;;;;5009781;28;20038;-70
2022/03/12 02:52:37;;;;;;;11.27;7.23;;;8.90;79.50;;;;;;5026469;28;20072;-70
2022/03/12 02:55:02;;;;;;;9.93;6.87;;;9.20;92.40;;;;;;5011082;28;20079;-70
2022/03/12 02:57:30;;;;;;;10.83;7.47;;;8.80;92.40;;;;;;5010878;28;20033;-70
2022/03/12 03:00:03;;;;;;;8.67;6.93;;;8.80;81.60;;;;;;5010750;28;20022;-70
2022/03/12 03:02:39;;;;;;;11.65;7.50;;;8.90;78.20;;;;;;5011057;28;20034;-70
2022/03/12 03:05:28;;;;;;;11.10;8.03;;;9.00;92.40;;;;;;5010858;28;20061;-70
2022/03/12 03:07:56;;;;;;;10.33;7.47;;;8.80;92.30;;;;;;5010587;28;20432;-70
2022/03/12 03:10:34;;;;;;;10.47;6.70;;;8.90;92.30;;;;;;5011211;28;20018;-70
2022/03/12 03:13:18;;;;;;;14.53;8.07;;;9.10;92.00;;;;;;5010567;28;20038;-70
2022/03/12 03:15:49;;;;;;;10.93;7.73;;;9.00;92.20;;;;;;5009562;28;20041;-70
2022/03/12 03:18:16;;;;;;;8.80;6.80;;;9.10;92.20;;;;;;5010996;28;20409;-71
2022/03/12 03:20:45;;;;;;;11.47;8.30;;;9.00;92.20;;;;;;5010970;28;20425;-70
2022/03/12 03:23:11;;;;;;;13.93;7.73;;;9.10;84.80;;;;;;5010546;28;20446;-70
2022/03/12 03:25:38;;;;;;;9.80;7.17;;;9.10;92.10;;;;;;5010318;28;20030;-70
2022/03/12 03:28:08;;;;;;;9.93;8.17;;;9.10;92.00;;;;;;5010371;28;20046;-70
2022/03/12 03:30:36;;;;;;;13.50;8.97;;;9.20;92.00;;;;;;5010428;28;20110;-70
2022/03/12 03:33:05;;;;;;;17.30;8.10;;;9.00;92.00;;;;;;5010558;28;20387;-70
2022/03/12 03:35:31;;;;;;;11.60;7.57;;;;;;;;;;5010721;28;20034;-70
2022/03/12 03:37:57;;;;;;;13.87;8.43;;;9.50;92.10;;;;;;5010239;28;20037;-70
2022/03/12 03:40:23;;;;;;;11.77;8.30;;;;;;;;;;5010223;28;20037;-70
2022/03/12 03:42:49;;;;;;;13.27;8.30;;;9.10;82.80;;;;;;5010188;28;20041;-70
2022/03/12 03:45:22;;;;;;;12.03;8.00;;;9.10;92.00;;;;;;5010429;28;20030;-70
2022/03/12 03:47:49;;;;;;;13.65;7.32;;;9.00;90.40;;;;;;5010136;28;20372;-70
2022/03/12 03:50:14;;;;;;;9.00;7.40;;;9.10;92.00;;;;;;5008922;28;20074;-70
2022/03/12 03:52:40;;;;;;;14.83;8.47;;;9.10;92.00;;;;;;5009472;28;20034;-70
2022/03/12 03:55:06;;;;;;;13.60;8.13;;;9.20;92.00;;;;;;5008178;28;20030;-70
2022/03/12 03:57:32;;;;;;;12.37;7.53;;;9.10;84.70;;;;;;5009209;28;20041;-70
2022/03/12 03:59:57;;;;;;;10.93;8.37;;;9.20;92.00;;;;;;5009873;28;20026;-70
2022/03/12 04:02:23;;;;;;;10.87;8.57;;;9.20;91.80;;;;;;5010344;28;20030;-70
2022/03/12 04:04:51;;;;;;;11.87;7.83;;;;;;;;;;5009508;28;20087;-70
2022/03/12 04:07:17;;;;;;;12.60;7.90;;;9.20;92.00;;;;;;5010164;28;20033;-70
2022/03/12 04:09:42;;;;;;;14.13;7.53;;;9.20;92.00;;;;;;5009895;28;20395;-70
2022/03/12 04:12:08;;;;;;;9.43;7.00;;;9.30;92.10;;;;;;5009476;28;20069;-70
2022/03/12 04:14:33;;;;;;;12.77;8.90;;;9.10;84.10;;;;;;5010133;28;20034;-70
2022/03/12 04:17:00;;;;;;;12.53;8.57;;;9.20;92.20;;;;;;5009765;28;20058;-70
2022/03/12 04:19:30;;;;;;;12.40;8.20;;;;;;;;;;5010116;28;20592;-70
2022/03/12 04:21:57;;;;;;;14.40;9.33;;;9.30;92.30;;;;;;5009565;28;20022;-71
2022/03/12 04:24:25;;;;;;;9.67;6.83;;;9.10;78.20;;;;;;5009767;28;20463;-70
2022/03/12 04:26:52;;;;;;;15.50;8.53;;;9.10;80.00;;;;;;5009653;28;20168;-70
2022/03/12 04:29:19;;;;;;;11.03;8.50;;;;;;;;;;5010160;28;20041;-70
2022/03/12 04:31:48;;;;;;;11.60;7.63;;;9.00;92.40;;;;;;5010139;28;20022;-70
2022/03/12 04:34:14;;;;;;;14.57;8.80;;;8.90;92.80;;;;;;5010144;28;20364;-70
2022/03/12 04:36:43;;;;;;;9.80;7.37;;;9.20;92.90;;;;;;5009866;28;20037;-71
2022/03/12 04:39:10;;;;;;;12.63;8.67;;;9.10;93.00;;;;;;5009210;28;20038;-72
2022/03/12 04:41:39;;;;;;;12.40;7.83;;;9.10;93.30;;;;;;5009992;28;20038;-70
2022/03/12 04:44:06;;;;;;;12.93;7.60;;;9.10;82.40;;;;;;5009740;28;20028;-70
2022/03/12 04:46:32;;;;;;;12.57;7.60;;;9.10;93.60;;;;;;5009883;28;20026;-70
2022/03/12 04:48:58;;;;;;;17.17;9.77;;;9.30;93.80;;;;;;5009687;28;20034;-70
2022/03/12 04:51:23;;;;;;;13.33;8.33;;;8.80;93.70;;;;;;5008131;28;20140;-70
2022/03/12 04:53:50;;;;;;;11.93;6.53;;;;;;;;;;5009120;28;20041;-70
2022/03/12 04:56:15;;;;;;;13.27;7.53;;;8.70;93.90;;;;;;5009986;28;20029;-70
2022/03/12 04:58:41;;;;;;;10.50;7.47;;;8.70;94.10;;;;;;5009828;28;20022;-71
2022/03/12 05:01:07;;;;;;;14.23;9.20;;;8.50;94.30;;;;;;5009666;28;20428;-70
2022/03/12 05:03:32;;;;;;;14.50;9.00;;;8.40;91.40;;;;;;5009495;28;20030;-70
2022/03/12 05:05:59;;;;;;;11.63;9.43;;;8.30;94.70;;;;;;5009448;28;20029;-70
2022/03/12 05:08:28;;;;;;;13.00;8.27;;;8.20;85.40;;;;;;5009062;28;20184;-70
2022/03/12 05:10:56;;;;;;;12.47;7.60;;;8.10;94.90;;;;;;5009251;28;20026;-70
2022/03/12 05:13:23;;;;;;;10.20;7.17;;;7.90;85.20;;;;;;5011687;28;20026;-70
2022/03/12 05:15:53;;;;;;;12.23;7.43;;;7.80;86.20;;;;;;5012875;28;20029;-70
2022/03/12 05:18:20;;;;;;;11.30;7.33;;;7.70;95.20;;;;;;5013620;28;20030;-70
2022/03/12 05:20:46;;;;;;;12.00;8.70;;;7.70;95.30;;;;;;5013085;28;20101;-71
2022/03/12 05:23:12;;;;;;;11.50;8.40;;;7.70;95.40;;;;;;5012478;28;20021;-70
2022/03/12 05:25:42;;;;;;;11.57;8.77;;;7.60;94.30;;;;;;5012800;28;20080;-70
2022/03/12 05:28:15;;;;;;;13.67;8.37;;;7.50;95.50;;;;;;5012404;28;20096;-70
2022/03/12 05:30:43;;;;;;;10.95;8.23;;;7.60;95.60;;;;;;5012590;28;20049;-70
2022/03/12 05:33:09;;;;;;;12.73;7.60;;;;;;;;;;5012540;28;20037;-70
2022/03/12 05:35:41;;;;;;;11.47;7.83;;;7.40;95.70;;;;;;5012351;28;20105;-70
2022/03/12 05:38:06;;;;;;;10.73;7.80;;;7.20;95.90;;;;;;5012592;28;20030;-70
2022/03/12 05:40:38;;;;;;;11.67;6.80;;;;;;;;;;5012576;28;20022;-70
2022/03/12 05:43:07;;;;;;;11.70;7.93;;;7.40;96.00;;;;;;5012124;28;20053;-71
2022/03/12 05:45:33;;;;;;;12.47;8.43;;;;;;;;;;5027690;28;20030;-70
2022/03/12 05:47:59;;;;;;;10.63;7.63;;;7.20;96.00;;;;;;5012265;28;20100;-71
2022/03/12 05:50:25;;;;;;;12.03;8.80;;;6.80;96.00;;;;;;5012099;28;20056;-70
2022/03/12 05:52:52;;;;;;;12.27;7.23;;;7.20;96.10;;;;;;5012035;28;20446;-70
2022/03/12 05:55:20;;;;;;;14.17;7.27;;;7.10;88.70;;;;;;5012633;28;20018;-70
2022/03/12 05:57:46;;;;;;;14.77;8.13;;;7.20;96.20;;;;;;5027204;28;20121;-70
2022/03/12 06:00:12;;;;;;;10.93;7.10;;;7.10;89.20;;;;;;5012109;28;20514;-70
2022/03/12 06:02:49;;;;;;;10.20;7.17;;;7.10;89.50;;;;;;5011061;28;20053;-70
2022/03/12 06:05:17;;;;;;;10.73;7.43;;;7.00;88.90;;;;;;5012024;28;20391;-70
2022/03/12 06:07:46;;;;;;;10.50;7.20;;;;;;;;;;5012046;28;20062;-70
2022/03/12 06:10:16;;;;;;;10.53;7.23;;;6.90;96.30;;;;;;5011796;28;20022;-70
2022/03/12 06:12:43;;;;;;;14.97;7.87;;;;;;;;;;5012116;28;20510;-70
2022/03/12 06:15:16;;;;;;;12.73;7.50;;;7.40;96.60;;;;;;5011649;28;20040;-70
2022/03/12 06:17:42;;;;;;;9.73;6.53;;;6.90;96.50;;;;;;5011819;28;20021;-70
2022/03/12 06:20:10;;;;;;;11.67;7.50;;;6.80;89.40;;;;;;5011358;28;20109;-70
2022/03/12 06:22:36;;;;;;;12.63;8.60;;;6.90;96.60;;;;;;5011839;28;20022;-71
2022/03/12 06:25:02;;;;;;;11.73;7.67;;;7.00;96.70;;;;;;5011480;28;20092;-71
2022/03/12 06:27:28;;;;;;;16.40;8.57;;;7.00;96.70;;;;;;5011066;28;20069;-70
2022/03/12 06:29:56;;;;;;;10.70;7.93;;;6.90;96.70;;;;;;5011158;28;20061;-70
2022/03/12 06:32:22;;;;;;;12.17;7.60;;;7.20;96.80;;;;;;5011603;28;20041;-70
2022/03/12 06:34:48;;;;;;;12.57;7.53;;;;;;;;;;5011161;28;20113;-70
2022/03/12 06:37:13;;;;;;;10.30;7.60;;;7.10;96.80;;;;;;5011448;28;20097;-70
2022/03/12 06:39:39;;;;;;;10.17;7.47;;;7.30;96.90;;;;;;5011616;28;20034;-70
2022/03/12 06:42:05;;;;;;;10.70;7.43;;;7.20;97.00;;;;;;5010962;28;20034;-70
2022/03/12 06:44:32;;;;;;;13.10;7.93;;;;;;;;;;5011583;28;20491;-70
2022/03/12 06:47:02;;;;;;;14.77;8.67;;;7.20;92.60;;;;;;5011138;28;20025;-70
2022/03/12 06:49:28;;;;;;;12.70;8.17;;;;;;;;;;5010931;28;20108;-70
2022/03/12 06:51:55;;;;;;;12.97;8.50;;;7.30;97.00;;;;;;5010648;28;20550;-70
2022/03/12 06:54:21;;;;;;;9.67;7.23;;;7.30;96.90;;;;;;5011581;28;20100;-70
2022/03/12 06:56:46;;;;;;;13.97;8.97;;;7.40;97.00;;;;;;5010723;28;20467;-71
2022/03/12 06:59:13;;;;;;;10.63;7.87;;;7.50;93.00;;;;;;5009381;28;20139;-70
2022/03/12 07:01:38;;;;;;;13.70;8.73;;;7.70;97.00;;;;;;5011177;28;20025;-71
2022/03/12 07:04:06;;;;;;;12.10;7.23;;;;;;;;;;5010356;28;20113;-70
2022/03/12 07:06:33;;;;;;;10.50;7.77;;;7.70;97.00;;;;;;5011254;28;20427;-71
2022/03/12 07:08:59;;;;;;;12.33;7.93;;;7.70;96.90;;;;;;5010857;28;20025;-70
2022/03/12 07:11:25;;;;;;;10.67;7.63;;;;;;;;;;5011368;28;20030;-70
2022/03/12 07:13:50;;;;;;;10.53;7.63;;;7.90;96.40;;;;;;5010278;28;20046;-70
2022/03/12 07:16:16;;;;;;;11.57;6.63;;;7.80;96.90;;;;;;5011090;28;20109;-71
2022/03/12 07:18:42;;;;;;;11.90;7.53;;;7.90;95.50;;;;;;5010446;28;20478;-70
2022/03/12 07:21:08;;;;;;;11.80;8.73;;;8.00;96.90;;;;;;5010663;28;20038;-70
2022/03/12 07:23:34;;;;;;;13.47;7.50;;;;;;;;;;5010909;28;20050;-70
2022/03/12 07:26:00;;;;;;;12.57;7.63;;;8.30;96.90;;;;;;5010460;28;20119;-70
2022/03/12 07:28:27;;;;;;;11.47;6.07;;;;;;;;;;5010650;28;20069;-70
2022/03/12 07:30:53;;;;;;;10.13;6.97;;;;;;;;;;5010331;28;20457;-70
2022/03/12 07:33:19;;;;;;;14.20;8.30;;;8.40;96.80;;;;;;5010304;28;20060;-70
2022/03/12 07:35:45;;;;;;;13.00;8.60;;;;;;;;;;5010144;28;20325;-71
2022/03/12 07:38:10;;;;;;;9.90;7.87;;;8.50;97.00;;;;;;5010369;28;20022;-70
2022/03/12 07:40:36;;;;;;;11.27;7.93;;;;;;;;;;5010547;28;20080;-70
2022/03/12 07:43:03;;;;;;;14.70;7.40;;;8.60;96.90;;;;;;5010037;28;20029;-70
2022/03/12 07:45:29;;;;;;;11.07;7.27;;;8.40;96.60;;;;;;5010681;28;20025;-71
2022/03/12 07:47:55;;;;;;;9.63;7.50;;;8.80;96.80;;;;;;5009488;28;20045;-72
2022/03/12 07:50:21;;;;;;;12.33;8.03;;;8.90;96.80;;;;;;5010551;28;20105;-71
2022/03/12 07:52:47;;;;;;;11.77;8.40;;;9.10;93.40;;;;;;5010509;28;20053;-70
2022/03/12 07:55:13;;;;;;;14.27;8.10;;;9.20;96.80;;;;;;5009632;28;20101;-73
2022/03/12 07:57:42;;;;;;;9.67;7.73;;;9.30;96.70;;;;;;5010080;28;20048;-71
2022/03/12 08:00:09;;;;;;;9.87;7.37;;;9.30;92.50;;;;;;5008938;28;20815;-71
2022/03/12 08:02:36;;;;;;;10.97;7.27;;;9.40;96.80;;;;;;5009755;28;20026;-70
2022/03/12 08:05:02;;;;;;;8.97;6.70;;;9.50;89.00;;;;;;5010120;28;20030;-71
2022/03/12 08:07:29;;;;;;;8.27;6.67;;;9.50;96.90;;;;;;5025476;28;20050;-71
2022/03/12 08:09:59;;;;;;;8.60;6.23;;;9.50;97.00;;;;;;5009952;28;20112;-71
2022/03/12 08:12:28;;;;;;;10.83;6.90;;;9.50;96.90;;;;;;5009119;28;20022;-71
2022/03/12 08:14:54;;;;;;;9.60;7.17;;;9.50;96.90;;;;;;5008407;28;20049;-71
2022/03/12 08:17:20;;;;;;;9.87;6.00;;;9.80;96.90;;;;;;5009840;28;20030;-71
2022/03/12 08:19:46;;;;;;;9.00;7.07;;;9.80;90.30;;;;;;5010245;28;20136;-71
2022/03/12 08:22:13;;;;;;;9.93;6.70;;;9.80;93.00;;;;;;5009933;28;20399;-71
2022/03/12 08:24:38;;;;;;;8.90;7.07;;;10.20;97.40;;;;;;5010176;28;20045;-71
2022/03/12 08:27:05;;;;;;;8.37;6.67;;;10.50;97.50;;;;;;5009502;28;20038;-71
2022/03/12 08:29:31;;;;;;;8.63;7.17;;;10.30;94.80;;;;;;5009547;28;20022;-71
2022/03/12 08:31:57;;;;;;;9.50;5.27;;;10.50;97.70;;;;;;5009535;28;20443;-71
2022/03/12 08:34:23;;;;;;;8.73;6.23;;;10.60;97.70;;;;;;5009955;28;20034;-71
2022/03/12 08:36:49;;;;;;;9.30;7.30;;;;;;;;;;5009774;28;20026;-71
2022/03/12 08:39:15;;;;;;;10.30;7.53;;;10.70;98.00;;;;;;5010114;28;20092;-71
2022/03/12 08:41:41;;;;;;;8.23;7.10;;;10.60;97.90;;;;;;5010033;28;20042;-71
2022/03/12 08:44:09;;;;;;;10.93;7.97;;;;;;;;;;5008870;28;20054;-71
2022/03/12 08:46:35;;;;;;;11.33;7.07;;;10.60;98.20;;;;;;5010616;28;20088;-71
2022/03/12 08:49:02;;;;;;;9.77;7.53;;;10.60;98.20;;;;;;5012897;28;20064;-71
2022/03/12 08:51:28;;;;;;;9.97;7.80;;;10.30;98.10;;;;;;5011943;28;20038;-71
2022/03/12 08:53:53;;;;;;;10.40;7.30;;;10.70;98.20;;;;;;5013284;28;20482;-71
2022/03/12 08:56:19;;;;;;;10.50;8.73;;;10.70;97.70;;;;;;5013597;28;20439;-71
2022/03/12 08:58:45;;;;;;;11.03;8.50;;;10.70;98.50;;;;;;5012420;28;20038;-71
2022/03/12 09:01:12;;;;;;;15.53;8.40;;;;;;;;;;5013195;28;20026;-71
2022/03/12 09:03:38;;;;;;;9.00;6.97;;;11.00;98.60;;;;;;5013501;28;20030;-71
2022/03/12 09:06:04;;;;;;;11.83;8.13;;;10.60;98.70;;;;;;5013262;28;20029;-70
2022/03/12 09:08:31;;;;;;;11.13;7.13;;;11.10;97.10;;;;;;5012915;28;20117;-71
2022/03/12 09:10:59;;;;;;;10.80;8.20;;;11.10;93.70;;;;;;5012730;28;20025;-71
2022/03/12 09:13:25;;;;;;;11.63;7.47;;;11.10;98.90;;;;;;5012410;28;20157;-70
2022/03/12 09:15:51;;;;;;;11.13;7.43;;;11.30;99.00;;;;;;5012499;28;20512;-70
2022/03/12 09:18:17;;;;;;;9.40;6.83;;;11.20;98.80;;;;;;5012478;28;20017;-71
2022/03/12 09:20:46;;;;;;;9.00;7.03;;;11.50;98.90;;;;;;5012443;28;20025;-70
2022/03/12 09:23:16;;;;;;;10.20;6.93;;;11.30;98.70;;;;;;5012564;28;20475;-71
2022/03/12 09:25:42;;;;;;;9.07;7.28;;;11.60;98.70;;;;;;5012847;28;20053;-70
2022/03/12 09:28:09;;;;;;;11.10;6.57;;;11.70;98.80;;;;;;5011890;28;20046;-71
2022/03/12 09:30:34;;;;;;;10.53;6.47;;;11.50;98.60;;;;;;5012957;28;20034;-71
2022/03/12 09:33:00;;;;;;;8.40;6.80;;;11.60;98.60;;;;;;5012711;28;20034;-71
2022/03/12 09:35:26;;;;;;;7.88;7.07;;;11.80;98.50;;;;;;5012978;28;20116;-71
2022/03/12 09:37:51;;;;;;;8.55;6.47;;;12.10;98.70;;;;;;5011024;28;20030;-71
2022/03/12 09:40:17;;;;;;;9.18;6.40;;;12.20;98.70;;;;;;5012913;28;20452;-70
2022/03/12 09:42:43;;;;;;;11.00;6.78;;;12.20;98.60;;;;;;5011385;28;20514;-71
2022/03/12 09:45:09;;;;;;;10.45;6.10;;;11.70;98.50;;;;;;5012081;28;20034;-72
2022/03/12 09:47:35;;;;;;;7.03;6.25;;;12.40;98.50;;;;;;5012140;28;20121;-70
2022/03/12 09:50:01;;;;;;;9.02;6.68;;;12.20;98.50;;;;;;5009216;28;20132;-70
2022/03/12 09:52:27;;;;;;;7.53;5.72;;;12.30;98.90;;;;;;5011261;28;20088;-71
2022/03/12 09:54:52;;;;;;;8.70;5.82;;;12.60;98.40;;;;;;5010329;28;20120;-72
2022/03/12 09:57:18;;;;;;;13.27;7.25;;;12.40;98.80;;;;;;5011607;28;20281;-71
2022/03/12 09:59:44;;;;;;;9.05;5.40;;;;;;;;;;5011266;28;20084;-71
2022/03/12 10:02:10;;;;;;;6.50;4.57;;;12.70;98.20;;;;;;5011793;28;20030;-72
2022/03/12 10:04:35;;;;;;;7.20;5.63;;;12.70;98.30;;;;;;5012006;28;20096;-72
2022/03/12 10:07:01;;;;;;;8.15;4.95;;;12.80;98.00;;;;;;5011414;28;20088;-71
2022/03/12 10:09:27;;;;;;;9.27;5.35;;;13.60;91.60;;;;;;5012086;28;20434;-71
2022/03/12 10:11:53;;;;;;;8.25;5.47;;;13.00;98.10;;;;;;5010755;28;20036;-72
2022/03/12 10:14:20;;;;;;;8.60;4.97;;;12.90;98.00;;;;;;5011945;28;20065;-71
2022/03/12 10:16:45;;;;;;;6.95;4.90;;;13.00;91.30;;;;;;5009029;28;20034;-72
2022/03/12 10:19:11;;;;;;;6.13;4.90;;;13.20;98.00;;;;;;5009420;28;20091;-72
2022/03/12 10:21:42;;;;;;;7.50;5.03;;;13.20;91.10;;;;;;5011729;28;20029;-71
2022/03/12 10:24:09;;;;;;;9.27;4.25;;;13.20;97.40;;;;;;5009632;28;20126;-71
2022/03/12 10:26:34;;;;;;;6.65;3.53;;;13.50;97.30;;;;;;5009440;28;20026;-71
2022/03/12 10:29:00;;;;;;;5.50;3.90;;;13.30;90.70;;;;;;5010463;28;20402;-70
2022/03/12 10:31:28;;;;;;;8.05;3.78;;;13.30;97.10;;;;;;5010684;28;20038;-72
2022/03/12 10:34:21;;;;;;;5.43;3.58;;;14.00;90.40;;;;;;5009705;28;20387;-71
2022/03/12 10:36:49;;;;;;;7.53;4.38;;;13.50;89.50;;;;;;4991524;28;20137;-72
2022/03/12 10:39:16;;;;;;;6.30;3.00;;;13.50;90.10;;;;;;4991795;28;20096;-73
2022/03/12 10:41:42;;;;;;;5.05;3.88;;;13.30;96.30;;;;;;4991063;28;20022;-71
2022/03/12 10:44:08;;;;;;;6.35;3.13;;;13.70;96.30;;;;;;5010060;28;20042;-72
2022/03/12 10:46:35;;;;;;;6.75;3.42;;;14.50;89.30;;;;;;5009014;28;20022;-72
2022/03/12 10:49:03;;;;;;;5.47;3.00;;;15.30;89.50;;;;;;5010430;28;20168;-71
2022/03/12 10:51:36;;;;;;;5.05;3.53;;;13.90;95.90;;;;;;5010492;28;20041;-71
2022/03/12 10:54:15;;;;;;;10.10;3.90;;;13.80;88.70;;;;;;5010410;28;20037;-72
2022/03/12 10:56:43;;;;;;;5.85;3.45;;;13.80;88.70;;;;;;5009438;28;20033;-72
2022/03/12 10:59:19;;;;;;;5.40;3.72;;;14.00;88.10;;;;;;5009526;28;20041;-72
2022/03/12 11:01:46;;;;;;;6.80;3.30;;;14.10;88.60;;;;;;5010338;28;20033;-72
2022/03/12 11:04:20;;;;;;;6.00;4.03;;;14.10;87.80;;;;;;5010257;28;20026;-72
2022/03/12 11:06:46;;;;;;;4.75;3.55;;;14.40;95.30;;;;;;5009613;28;20032;-72
2022/03/12 11:09:18;;;;;;;4.60;2.90;;;14.10;87.00;;;;;;5009774;28;20032;-72
2022/03/12 11:11:45;;;;;;;8.35;4.05;;;14.30;87.90;;;;;;5009513;28;20494;-72
2022/03/12 11:14:20;;;;;;;7.88;4.13;;;14.30;86.60;;;;;;5009784;28;20045;-72
2022/03/12 11:16:52;;;;;;;6.00;3.97;;;14.40;85.60;;;;;;5008931;28;20034;-72
2022/03/12 11:19:37;;;;;;;4.95;3.22;;;14.90;87.40;;;;;;5009426;28;20056;-72
2022/03/12 11:22:10;;;;;;;5.43;3.95;;;14.40;86.40;;;;;;5009730;28;20033;-72
2022/03/12 11:24:50;;;;;;;8.05;3.53;;;14.40;85.10;;;;;;5009303;28;20018;-72
2022/03/12 11:27:34;;;;;;;7.85;3.67;;;14.40;87.10;;;;;;5010915;28;20423;-72
2022/03/12 11:30:08;;;;;;;7.40;3.70;;;14.40;85.10;;;;;;5010261;28;20270;-73
2022/03/12 11:32:45;;;;;;;9.20;3.92;;;14.40;86.50;;;;;;5010245;28;20057;-72
2022/03/12 11:35:15;;;;;;;6.43;4.00;;;14.50;84.40;;;;;;5009462;28;20037;-71
2022/03/12 11:37:42;;;;;;;8.02;3.40;;;14.40;86.20;;;;;;5009110;28;20065;-72
2022/03/12 11:40:14;;;;;;;7.40;3.75;;;14.70;94.80;;;;;;5007727;28;20395;-72
2022/03/12 11:42:41;;;;;;;7.07;3.47;;;14.70;86.10;;;;;;4990706;28;20030;-72
2022/03/12 11:45:11;;;;;;;6.13;3.83;;;14.70;85.40;;;;;;4996606;28;20022;-70
2022/03/12 11:47:38;;;;;;;11.07;4.00;;;14.70;86.00;;;;;;5008101;28;20486;-70
2022/03/12 11:50:08;;;;;;;7.50;4.50;;;14.60;85.70;;;;;;5009214;28;20042;-71
2022/03/12 11:52:35;;;;;;;6.57;4.40;;;14.60;85.20;;;;;;5009704;28;20048;-72
2022/03/12 11:55:05;;;;;;;4.63;3.63;;;14.60;85.60;;;;;;5009668;28;20030;-71
2022/03/12 11:57:34;;;;;;;9.60;3.67;;;16.30;86.90;;;;;;5009934;28;20046;-71
2022/03/12 12:00:02;;;;;;;5.80;3.90;;;14.60;86.00;;;;;;5009409;28;20067;-72
2022/03/12 12:02:34;;;;;;;6.30;3.25;;;14.60;85.80;;;;;;5010014;28;20060;-71
2022/03/12 12:05:05;;;;;;;5.72;4.28;;;14.70;83.40;;;;;;5009832;28;20093;-71
2022/03/12 12:07:36;;;;;;;7.03;3.72;;;14.80;83.60;;;;;;5009829;28;20555;-71
2022/03/12 12:10:09;;;;;;;6.47;3.65;;;15.00;84.80;;;;;;5009560;28;20071;-71
2022/03/12 12:12:35;;;;;;;5.13;3.88;;;;;;;;;;5009821;28;20050;-71
2022/03/12 12:15:05;;;;;;;8.80;4.50;;;15.10;81.70;;;;;;5010199;28;20038;-72
2022/03/12 12:17:32;;;;;;;5.28;4.07;;;15.10;82.70;;;;;;5009737;28;20068;-72
2022/03/12 12:19:58;;;;;;;5.18;3.63;;;14.80;84.60;;;;;;5009322;28;20030;-72
2022/03/12 12:22:24;;;;;;;6.65;5.45;;;15.60;94.50;;;;;;5012002;28;20148;-72
2022/03/12 12:24:55;;;;;;;5.65;4.20;;;15.20;84.50;;;;;;5013331;28;20109;-71
2022/03/12 12:27:23;;;;;;;7.07;4.63;;;15.10;85.30;;;;;;5014182;28;20034;-72
2022/03/12 12:29:56;;;;;;;7.47;4.85;;;14.90;84.40;;;;;;5013361;28;20045;-72
2022/03/12 12:32:26;;;;;;;5.93;4.97;;;15.00;85.50;;;;;;5013810;28;20030;-72
2022/03/12 12:34:58;;;;;;;9.05;3.72;;;15.00;83.40;;;;;;5013593;28;20037;-72
2022/03/12 12:37:42;;;;;;;5.07;3.50;;;14.90;85.70;;;;;;5013201;28;20483;-72
2022/03/12 12:40:21;;;;;;;;;;;15.10;85.50;;;;;;5012674;28;20462;-72
2022/03/12 12:42:48;;;;;;;7.25;4.35;;;15.20;83.50;;;;;;5008950;28;19965;-71
2022/03/12 12:45:19;;;;;;;6.80;3.65;;;15.40;84.00;;;;;;5013549;28;20084;-70
2022/03/12 12:47:45;;;;;;;7.72;3.95;;;15.50;83.50;;;;;;5013529;28;20038;-72
2022/03/12 12:50:25;;;;;;;6.63;3.95;;;15.60;82.30;;;;;;5013089;28;20104;-72
2022/03/12 12:53:27;;;;;;;7.10;3.10;;;15.70;83.10;;;;;;4995891;28;20088;-71
2022/03/12 12:56:13;;;;;;;5.47;2.95;;;15.80;81.10;;;;;;4971889;28;20031;-71
2022/03/12 12:59:06;;;;;;;5.95;3.22;;;15.70;82.10;;;;;;4971143;28;20065;-72
2022/03/12 13:01:36;;;;;;;7.07;3.53;;;15.70;83.00;;;;;;4966336;28;20038;-72
2022/03/12 13:04:03;;;;;;;6.53;3.33;;;15.70;80.80;;;;;;4962024;28;20440;-72